Time;durP1;ratioP1;P1;durP2;ratioP2;P2;SDS_P1;SDS_P2;PMS_P1;PMS_P2;Temp;Humidity;BMP_temperature;BMP_pressure;BME280_temperature;BME280_humidity;BME280_pressure;Samples;Min_cycle;Max_cycle;Signal;HPM_P1;HPM_P2
2023/01/17 00:02:00;;;;;;;0.68;0.40;;;2.70;68.50;;;;;;5057916;28;20036;-73
2023/01/17 00:09:58;;;;;;;1.13;0.43;;;2.80;67.70;;;;;;5075906;28;20086;-73
2023/01/17 00:12:26;;;;;;;0.80;0.52;;;2.80;69.40;;;;;;5057566;28;20555;-73
2023/01/17 00:14:54;;;;;;;0.93;0.50;;;2.70;68.60;;;;;;5057717;28;20082;-73
2023/01/17 00:17:21;;;;;;;1.20;0.40;;;2.70;69.10;;;;;;5057366;28;20072;-74
2023/01/17 01:35:49;;;;;;;0.70;0.28;;;2.10;65.60;;;;;;5074124;28;20040;-75
2023/01/17 01:38:16;;;;;;;0.70;0.35;;;2.20;66.00;;;;;;5056120;28;20487;-75
2023/01/17 01:40:46;;;;;;;0.70;0.30;;;2.10;66.70;;;;;;5055870;28;20158;-75
2023/01/17 01:43:14;;;;;;;1.00;0.40;;;2.10;67.30;;;;;;5055564;28;20392;-76
2023/01/17 01:45:42;;;;;;;0.68;0.50;;;2.10;67.30;;;;;;5055176;28;20048;-75
2023/01/17 01:48:33;;;;;;;2.38;0.43;;;2.00;68.20;;;;;;5055705;28;20024;-76
2023/01/17 01:51:05;;;;;;;0.90;0.30;;;2.00;69.00;;;;;;5055852;28;20522;-75
2023/01/17 01:53:36;;;;;;;1.23;0.60;;;2.00;71.10;;;;;;5055782;28;20024;-75
2023/01/17 01:56:04;;;;;;;1.15;0.40;;;1.90;70.70;;;;;;5046105;28;20037;-74
2023/01/17 01:58:32;;;;;;;1.00;0.47;;;1.80;71.10;;;;;;4972652;28;20034;-74
2023/01/17 02:00:57;;;;;;;1.08;0.40;;;1.80;70.60;;;;;;4972715;28;20391;-75
2023/01/17 02:03:29;;;;;;;1.67;0.57;;;1.80;70.50;;;;;;4973679;28;20026;-75
2023/01/17 02:06:03;;;;;;;1.70;0.50;;;1.80;68.70;;;;;;4973325;28;20120;-72
2023/01/17 02:08:30;;;;;;;2.17;0.40;;;1.80;69.40;;;;;;4973901;28;20486;-73
2023/01/17 02:10:55;;;;;;;3.80;0.45;;;1.80;69.10;;;;;;4973896;28;20026;-73
2023/01/17 02:13:21;;;;;;;1.63;0.43;;;1.80;69.20;;;;;;4973857;28;20033;-74
2023/01/17 02:16:08;;;;;;;1.75;0.40;;;1.70;69.40;;;;;;4973966;28;20117;-73
2023/01/17 02:18:58;;;;;;;1.30;0.50;;;1.80;68.20;;;;;;4973891;28;20125;-73
2023/01/17 02:21:46;;;;;;;1.13;0.40;;;1.80;67.60;;;;;;4973623;28;20022;-73
2023/01/17 02:24:36;;;;;;;1.05;0.60;;;1.80;67.10;;;;;;4934565;28;20042;-74
2023/01/17 02:27:19;;;;;;;1.13;0.40;;;1.80;66.40;;;;;;4973777;28;20033;-74
2023/01/17 02:30:08;;;;;;;0.73;0.40;;;1.80;64.80;;;;;;4973477;28;20022;-74
2023/01/17 02:32:46;;;;;;;1.25;0.50;;;1.80;65.40;;;;;;4963376;28;20129;-73
2023/01/17 02:35:36;;;;;;;1.48;0.40;;;1.80;65.40;;;;;;4973625;28;20470;-73
2023/01/17 02:38:13;;;;;;;1.88;0.40;;;1.80;65.40;;;;;;4973514;28;20034;-74
2023/01/17 02:40:47;;;;;;;0.47;0.25;;;1.80;66.40;;;;;;4973514;28;20057;-73
2023/01/17 02:43:15;;;;;;;1.15;0.45;;;1.70;66.10;;;;;;4973648;28;20033;-74
2023/01/17 02:45:41;;;;;;;1.27;0.30;;;1.70;66.30;;;;;;4973494;28;20129;-73
2023/01/17 02:48:09;;;;;;;1.70;0.40;;;1.70;66.40;;;;;;4973731;28;20060;-73
2023/01/17 02:50:47;;;;;;;0.75;0.40;;;1.70;66.80;;;;;;4973298;28;20026;-75
2023/01/17 02:53:28;;;;;;;0.68;0.40;;;1.70;66.30;;;;;;4973344;28;20348;-75
2023/01/17 02:56:11;;;;;;;1.80;0.52;;;1.70;65.40;;;;;;4970939;28;20057;-73
2023/01/17 02:59:24;;;;;;;4.82;0.65;;;1.70;64.90;;;;;;4973591;28;20486;-74
2023/01/17 03:01:59;;;;;;;0.47;0.40;;;1.70;64.40;;;;;;4955951;28;20495;-76
2023/01/17 03:04:40;;;;;;;1.00;0.40;;;1.80;64.30;;;;;;4973653;28;20027;-74
2023/01/17 03:07:15;;;;;;;1.00;0.35;;;1.80;64.40;;;;;;4989714;28;20274;-75
2023/01/17 03:09:44;;;;;;;1.13;0.50;;;1.80;64.70;;;;;;4973410;28;20041;-80
2023/01/17 03:12:11;;;;;;;6.85;0.63;;;1.80;64.50;;;;;;4973777;28;20033;-78
2023/01/17 03:14:37;;;;;;;3.50;0.57;;;1.90;64.70;;;;;;4980459;28;20090;-74
2023/01/17 03:17:03;;;;;;;0.82;0.40;;;1.90;64.40;;;;;;4983673;28;20065;-78
2023/01/17 03:19:30;;;;;;;1.17;0.47;;;1.90;64.60;;;;;;4975740;28;20387;-76
2023/01/17 03:21:55;;;;;;;2.65;0.40;;;1.90;65.40;;;;;;4979380;28;20049;-74
2023/01/17 03:24:21;;;;;;;1.75;0.57;;;1.90;66.40;;;;;;4973250;28;20035;-74
2023/01/17 03:26:46;;;;;;;0.65;0.30;;;1.90;66.90;;;;;;4973321;28;20046;-75
2023/01/17 03:29:14;;;;;;;0.88;0.50;;;1.90;67.30;;;;;;4973003;28;20073;-77
2023/01/17 03:31:39;;;;;;;3.55;0.63;;;1.90;67.50;;;;;;4973058;28;20034;-74
2023/01/17 03:34:05;;;;;;;0.90;0.40;;;1.90;67.60;;;;;;4974340;28;20023;-74
2023/01/17 03:36:31;;;;;;;1.35;0.57;;;2.00;67.60;;;;;;4972902;28;20118;-76
2023/01/17 03:38:56;;;;;;;0.88;0.50;;;2.00;66.60;;;;;;4973760;28;20035;-82
2023/01/17 03:41:22;;;;;;;2.05;0.35;;;2.00;65.30;;;;;;4973624;28;20034;-82
2023/01/17 03:43:48;;;;;;;0.35;0.35;;;2.00;65.70;;;;;;4973089;28;20031;-83
2023/01/17 03:46:24;;;;;;;1.45;0.52;;;2.00;64.40;;;;;;4973268;28;20019;-81
2023/01/17 03:48:51;;;;;;;0.85;0.30;;;2.00;64.50;;;;;;4972948;28;20026;-82
2023/01/17 03:51:17;;;;;;;1.40;0.40;;;2.00;64.80;;;;;;4973032;28;20026;-82
2023/01/17 03:53:45;;;;;;;1.05;0.52;;;2.00;63.30;;;;;;4973212;28;20031;-82
2023/01/17 03:56:10;;;;;;;1.48;0.40;;;2.10;60.60;;;;;;4972680;28;20055;-82
2023/01/17 03:58:36;;;;;;;1.90;0.30;;;2.10;61.00;;;;;;4972795;28;20556;-82
2023/01/17 04:01:01;;;;;;;1.58;0.60;;;2.10;61.70;;;;;;4972957;28;20019;-82
2023/01/17 04:03:27;;;;;;;0.63;0.30;;;2.10;61.70;;;;;;4972493;28;20031;-82
2023/01/17 04:05:52;;;;;;;1.08;0.73;;;2.10;61.10;;;;;;4972480;28;20045;-81
2023/01/17 04:08:18;;;;;;;0.68;0.30;;;2.10;60.60;;;;;;4972486;28;20141;-82
2023/01/17 04:10:43;;;;;;;0.40;0.40;;;2.10;60.20;;;;;;4972674;28;20061;-81
2023/01/17 04:13:09;;;;;;;2.38;0.65;;;2.00;60.40;;;;;;4972614;28;20085;-82
2023/01/17 04:15:35;;;;;;;2.50;0.55;;;2.00;60.40;;;;;;4972284;28;20078;-82
2023/01/17 04:18:02;;;;;;;2.13;0.32;;;2.00;60.70;;;;;;4971733;28;20031;-74
2023/01/17 04:20:36;;;;;;;2.20;0.40;;;2.00;59.90;;;;;;4972050;28;20384;-75
2023/01/17 04:23:02;;;;;;;8.38;0.63;;;2.10;60.20;;;;;;4972298;28;20062;-73
2023/01/17 04:25:29;;;;;;;3.80;0.52;;;2.00;59.90;;;;;;4972349;28;20065;-74
2023/01/17 04:27:56;;;;;;;2.92;0.60;;;2.00;59.90;;;;;;4972309;28;20027;-75
2023/01/17 04:30:22;;;;;;;1.95;0.57;;;2.00;60.30;;;;;;4972160;28;20369;-74
2023/01/17 04:32:47;;;;;;;0.95;0.60;;;1.90;60.70;;;;;;4972024;28;20034;-74
2023/01/17 04:35:13;;;;;;;1.23;0.32;;;1.90;61.20;;;;;;4971943;28;20136;-74
2023/01/17 04:37:39;;;;;;;2.42;0.50;;;1.90;61.20;;;;;;4972101;28;20042;-75
2023/01/17 04:40:06;;;;;;;0.65;0.28;;;1.80;60.80;;;;;;4971964;28;20487;-81
2023/01/17 04:42:31;;;;;;;1.35;0.35;;;1.90;61.20;;;;;;4971844;28;20031;-81
2023/01/17 04:44:57;;;;;;;1.60;0.40;;;1.90;61.60;;;;;;4971986;28;20030;-78
2023/01/17 04:47:22;;;;;;;0.60;0.40;;;1.90;61.70;;;;;;4971693;28;20418;-81
2023/01/17 04:49:48;;;;;;;1.10;0.47;;;1.80;62.00;;;;;;4971800;28;20042;-79
2023/01/17 04:52:14;;;;;;;1.05;0.57;;;1.80;61.80;;;;;;4971957;28;20033;-79
2023/01/17 04:54:40;;;;;;;0.60;0.50;;;1.80;62.20;;;;;;4971782;28;20712;-81
2023/01/17 04:57:06;;;;;;;0.63;0.50;;;1.80;62.20;;;;;;4971797;28;20049;-82
2023/01/17 04:59:31;;;;;;;1.50;0.50;;;1.90;62.20;;;;;;4971574;28;20113;-81
2023/01/17 05:01:57;;;;;;;1.85;0.52;;;1.90;62.60;;;;;;4971562;28;20027;-82
2023/01/17 05:04:22;;;;;;;1.65;0.50;;;1.90;62.10;;;;;;4971516;28;20019;-82
2023/01/17 05:06:48;;;;;;;1.83;0.47;;;1.90;61.80;;;;;;4971750;28;20031;-82
2023/01/17 05:09:14;;;;;;;1.13;0.40;;;1.90;61.50;;;;;;4971490;28;20054;-82
2023/01/17 05:11:39;;;;;;;1.80;0.40;;;1.90;61.60;;;;;;4971683;28;20114;-81
2023/01/17 05:14:05;;;;;;;1.58;0.40;;;1.90;61.70;;;;;;4971235;28;20039;-81
2023/01/17 05:16:30;;;;;;;1.65;0.55;;;1.90;62.10;;;;;;4971283;28;20026;-81
2023/01/17 05:18:56;;;;;;;1.55;0.50;;;1.90;62.50;;;;;;4970409;28;20037;-79
2023/01/17 05:21:22;;;;;;;0.52;0.40;;;2.00;62.60;;;;;;4971313;28;20023;-80
2023/01/17 05:23:48;;;;;;;2.80;1.20;;;2.00;62.90;;;;;;4971534;28;20023;-81
2023/01/17 05:26:14;;;;;;;2.70;1.63;;;2.00;63.20;;;;;;4971361;28;20382;-79
2023/01/17 05:28:39;;;;;;;4.85;2.83;;;2.00;63.80;;;;;;4971406;28;20026;-77
2023/01/17 05:31:05;;;;;;;5.50;2.40;;;2.10;64.90;;;;;;4971182;28;20027;-81
2023/01/17 05:33:30;;;;;;;2.67;1.58;;;2.00;65.70;;;;;;4971045;28;20023;-75
2023/01/17 05:35:56;;;;;;;2.28;1.05;;;2.00;66.20;;;;;;4975777;28;20023;-79
2023/01/17 05:38:23;;;;;;;1.10;0.95;;;2.00;66.80;;;;;;5053645;28;20083;-76
2023/01/17 05:40:48;;;;;;;1.17;0.90;;;2.00;67.20;;;;;;5052586;28;20082;-75
2023/01/17 05:43:14;;;;;;;2.10;0.77;;;1.90;67.60;;;;;;5052694;28;20021;-75
2023/01/17 05:45:39;;;;;;;1.70;0.70;;;1.90;67.80;;;;;;5052367;28;20117;-78
2023/01/17 05:48:05;;;;;;;0.82;0.60;;;1.90;68.00;;;;;;5052499;28;20021;-77
2023/01/17 05:50:36;;;;;;;1.30;0.90;;;1.90;67.90;;;;;;5052245;28;20435;-82
2023/01/17 05:53:03;;;;;;;3.65;1.05;;;1.90;67.70;;;;;;5052504;28;20021;-81
2023/01/17 05:55:30;;;;;;;8.50;3.40;;;1.90;67.30;;;;;;5052181;28;20060;-82
2023/01/17 05:57:56;;;;;;;5.20;2.28;;;1.80;66.90;;;;;;5052355;28;20033;-82
2023/01/17 06:00:22;;;;;;;3.97;2.00;;;1.80;67.70;;;;;;5052170;28;20025;-82
2023/01/17 06:02:48;;;;;;;5.32;2.15;;;1.80;67.40;;;;;;5052426;28;20033;-82
2023/01/17 06:05:15;;;;;;;1.55;0.95;;;1.70;67.90;;;;;;5052147;28;20021;-79
2023/01/17 06:07:45;;;;;;;4.07;1.20;;;1.70;68.60;;;;;;5052261;28;20024;-80
2023/01/17 06:10:13;;;;;;;1.90;1.13;;;1.60;69.80;;;;;;5052087;28;20481;-79
2023/01/17 06:12:38;;;;;;;2.38;1.30;;;1.50;70.70;;;;;;5051932;28;20064;-80
2023/01/17 06:15:05;;;;;;;9.63;2.80;;;1.50;72.20;;;;;;5051943;28;20045;-80
2023/01/17 06:17:30;;;;;;;8.20;3.55;;;1.40;71.90;;;;;;5052117;28;20029;-81
2023/01/17 06:19:56;;;;;;;5.57;2.83;;;1.30;72.40;;;;;;5052240;28;20025;-77
2023/01/17 06:22:21;;;;;;;9.60;4.40;;;1.30;72.40;;;;;;5051964;28;20389;-80
2023/01/17 06:24:47;;;;;;;9.70;4.82;;;1.30;72.60;;;;;;5051804;28;20064;-77
2023/01/17 06:27:12;;;;;;;17.80;7.75;;;1.30;72.80;;;;;;5052033;28;20423;-76
2023/01/17 06:29:39;;;;;;;19.48;9.27;;;1.30;73.00;;;;;;5051848;28;20033;-78
2023/01/17 06:32:05;;;;;;;21.73;10.73;;;1.30;73.20;;;;;;5050938;28;20462;-75
2023/01/17 06:34:30;;;;;;;20.83;10.80;;;1.20;74.10;;;;;;5051967;28;20029;-75
2023/01/17 06:36:56;;;;;;;19.10;7.72;;;1.10;74.00;;;;;;5051825;28;20034;-76
2023/01/17 06:39:22;;;;;;;12.88;6.38;;;1.10;73.90;;;;;;5051873;28;20130;-80
2023/01/17 06:41:47;;;;;;;9.00;4.22;;;1.10;74.30;;;;;;5051692;28;20028;-75
2023/01/17 06:44:13;;;;;;;5.63;2.97;;;1.00;74.20;;;;;;5051182;28;20295;-81
2023/01/17 06:46:39;;;;;;;7.85;3.10;;;1.00;73.80;;;;;;5051650;28;20063;-77
2023/01/17 06:49:05;;;;;;;8.45;3.25;;;0.90;75.00;;;;;;5052242;28;20386;-74
2023/01/17 06:51:30;;;;;;;9.05;2.97;;;0.80;74.30;;;;;;5052046;28;20024;-77
2023/01/17 06:53:56;;;;;;;10.70;3.55;;;0.80;74.40;;;;;;5051700;28;20025;-75
2023/01/17 06:56:21;;;;;;;11.05;4.00;;;0.70;74.40;;;;;;5055008;28;20427;-75
2023/01/17 06:58:51;;;;;;;6.78;3.47;;;0.60;74.40;;;;;;5054831;28;20059;-81
2023/01/17 07:01:18;;;;;;;7.45;3.60;;;0.60;74.50;;;;;;5054904;28;20023;-75
2023/01/17 07:03:43;;;;;;;8.70;3.35;;;0.70;74.40;;;;;;5054989;28;20021;-76
2023/01/17 07:06:09;;;;;;;6.18;3.22;;;0.70;74.20;;;;;;5054926;28;20044;-81
2023/01/17 07:08:35;;;;;;;5.65;3.30;;;0.70;74.20;;;;;;5054827;28;20033;-75
2023/01/17 07:11:03;;;;;;;5.22;2.60;;;0.70;73.90;;;;;;5054832;28;20024;-74
2023/01/17 07:13:32;;;;;;;7.95;2.60;;;0.50;73.70;;;;;;5054370;28;20032;-75
2023/01/17 07:16:00;;;;;;;4.57;2.63;;;0.50;74.10;;;;;;5054580;28;20032;-77
2023/01/17 07:18:25;;;;;;;4.20;1.42;;;0.60;73.90;;;;;;5054754;28;20028;-77
2023/01/17 07:20:52;;;;;;;8.77;2.10;;;0.60;73.50;;;;;;5054748;28;20024;-76
2023/01/17 07:23:19;;;;;;;5.65;2.50;;;0.60;73.60;;;;;;5054335;28;20024;-79
2023/01/17 07:25:56;;;;;;;6.63;2.30;;;0.60;73.40;;;;;;5054426;28;20032;-82
2023/01/17 07:28:22;;;;;;;7.80;2.83;;;0.60;73.40;;;;;;5054715;28;20028;-78
2023/01/17 07:30:48;;;;;;;5.15;2.08;;;0.60;73.30;;;;;;5054792;28;20025;-79
2023/01/17 07:33:15;;;;;;;6.45;2.67;;;0.60;73.30;;;;;;5072622;28;20048;-79
2023/01/17 07:35:40;;;;;;;5.43;2.35;;;0.60;73.10;;;;;;5054239;28;20063;-79
2023/01/17 07:38:10;;;;;;;4.93;2.05;;;0.60;72.50;;;;;;5054295;28;20493;-82
2023/01/17 07:40:36;;;;;;;7.95;2.38;;;0.60;72.40;;;;;;5054378;28;20027;-78
2023/01/17 07:43:11;;;;;;;4.45;2.17;;;0.60;72.40;;;;;;5038910;28;20122;-80
2023/01/17 07:45:42;;;;;;;4.47;2.22;;;0.70;72.50;;;;;;5076057;28;20016;-76
2023/01/17 07:48:08;;;;;;;4.63;2.60;;;0.80;72.20;;;;;;5057902;28;20021;-81
2023/01/17 07:50:35;;;;;;;6.40;2.20;;;0.90;72.20;;;;;;5057546;28;20115;-75
2023/01/17 07:53:01;;;;;;;6.93;2.60;;;0.90;71.90;;;;;;5057456;28;20031;-78
2023/01/17 07:55:27;;;;;;;7.15;3.10;;;1.00;71.70;;;;;;5053991;28;20059;-76
2023/01/17 07:57:53;;;;;;;6.03;3.03;;;1.10;71.60;;;;;;5054207;28;20033;-74
2023/01/17 08:00:21;;;;;;;4.07;2.45;;;1.10;71.10;;;;;;5054230;28;20391;-80
2023/01/17 08:02:47;;;;;;;5.25;2.22;;;1.20;70.80;;;;;;5054124;28;20025;-79
2023/01/17 08:05:13;;;;;;;5.22;2.97;;;1.20;70.50;;;;;;5054072;28;20489;-76
2023/01/17 08:07:39;;;;;;;5.78;2.92;;;1.20;70.10;;;;;;5051937;28;20500;-75
2023/01/17 08:10:11;;;;;;;4.15;1.80;;;1.20;70.50;;;;;;5052961;28;20123;-77
2023/01/17 08:12:37;;;;;;;3.63;2.28;;;1.20;69.90;;;;;;5052423;28;20036;-75
2023/01/17 08:15:04;;;;;;;5.53;2.03;;;1.20;70.10;;;;;;5052350;28;20028;-77
2023/01/17 08:17:29;;;;;;;4.95;2.10;;;1.30;73.50;;;;;;5053969;28;20044;-80
2023/01/17 08:19:55;;;;;;;5.25;2.45;;;1.50;74.10;;;;;;5054152;28;20024;-80
2023/01/17 08:22:21;;;;;;;6.80;2.58;;;1.80;73.30;;;;;;5054197;28;20028;-77
2023/01/17 08:24:47;;;;;;;6.57;2.50;;;1.90;71.50;;;;;;5053854;28;20520;-78
2023/01/17 08:27:14;;;;;;;20.20;3.30;;;2.00;71.10;;;;;;5054910;28;20469;-78
2023/01/17 08:29:45;;;;;;;5.80;2.20;;;2.10;74.10;;;;;;5053849;28;20551;-77
2023/01/17 08:32:11;;;;;;;5.38;2.45;;;2.40;72.50;;;;;;5054232;28;20098;-80
2023/01/17 08:34:37;;;;;;;5.90;2.60;;;2.90;73.60;;;;;;5054951;28;20025;-77
2023/01/17 08:37:03;;;;;;;7.05;2.22;;;3.40;72.60;;;;;;5054978;28;20612;-77
2023/01/17 08:39:29;;;;;;;6.68;2.10;;;3.60;66.40;;;;;;5053642;28;20037;-77
2023/01/17 08:41:56;;;;;;;5.85;2.47;;;4.10;67.40;;;;;;5054037;28;20075;-79
2023/01/17 08:44:21;;;;;;;4.60;2.25;;;4.20;63.20;;;;;;5055043;28;20082;-78
2023/01/17 08:46:47;;;;;;;4.43;2.10;;;4.00;61.50;;;;;;5053987;28;20029;-78
2023/01/17 08:49:12;;;;;;;6.60;2.50;;;4.30;63.20;;;;;;5054236;28;20116;-77
2023/01/17 08:51:39;;;;;;;5.95;2.40;;;4.30;61.10;;;;;;5061936;28;20017;-77
2023/01/17 08:54:04;;;;;;;5.03;2.60;;;4.70;62.90;;;;;;5055040;28;20033;-77
2023/01/17 08:56:30;;;;;;;5.00;2.65;;;5.20;59.70;;;;;;5057268;28;20127;-75
2023/01/17 08:58:55;;;;;;;5.05;2.35;;;5.60;57.90;;;;;;5057175;28;20032;-75
2023/01/17 09:01:21;;;;;;;6.22;3.00;;;5.70;56.70;;;;;;5056778;28;20114;-75
2023/01/17 09:03:50;;;;;;;5.43;2.90;;;5.70;54.60;;;;;;5056327;28;20031;-74
2023/01/17 09:06:16;;;;;;;5.88;3.15;;;5.30;54.90;;;;;;5056565;28;20028;-75
2023/01/17 09:08:45;;;;;;;4.80;2.65;;;4.90;56.10;;;;;;5056754;28;20035;-75
2023/01/17 09:11:13;;;;;;;5.30;2.90;;;4.60;57.40;;;;;;5056163;28;20024;-78
2023/01/17 09:13:39;;;;;;;6.07;2.83;;;4.20;58.70;;;;;;5056466;28;20024;-75
2023/01/17 09:16:06;;;;;;;5.53;3.10;;;3.90;60.00;;;;;;5056034;28;20023;-77
2023/01/17 09:18:32;;;;;;;7.72;3.17;;;3.50;61.90;;;;;;5055898;28;20040;-76
2023/01/17 09:20:58;;;;;;;5.32;2.75;;;3.20;63.30;;;;;;5055955;28;20027;-76
2023/01/17 09:23:26;;;;;;;6.22;2.50;;;3.00;64.50;;;;;;5074436;28;20036;-76
2023/01/17 09:25:56;;;;;;;4.03;2.17;;;3.00;64.70;;;;;;5076967;28;20133;-74
2023/01/17 09:28:23;;;;;;;4.75;2.60;;;2.90;64.70;;;;;;5056679;28;20031;-74
2023/01/17 09:30:49;;;;;;;5.45;2.22;;;2.80;64.80;;;;;;5056153;28;20035;-75
2023/01/17 09:33:15;;;;;;;6.75;2.40;;;2.80;65.30;;;;;;5074038;28;20468;-75
2023/01/17 09:35:41;;;;;;;3.80;1.98;;;2.80;65.40;;;;;;5074107;28;20100;-74
2023/01/17 09:38:07;;;;;;;2.65;1.80;;;2.70;65.80;;;;;;5055863;28;20127;-75
2023/01/17 09:40:34;;;;;;;3.42;1.80;;;2.60;66.10;;;;;;5072258;28;20532;-74
2023/01/17 09:43:04;;;;;;;6.78;2.38;;;2.70;66.70;;;;;;5073044;28;20481;-76
2023/01/17 09:45:32;;;;;;;5.90;2.30;;;2.90;66.40;;;;;;5073393;28;20021;-73
2023/01/17 09:48:00;;;;;;;2.67;1.70;;;3.20;65.70;;;;;;5055832;28;20024;-76
2023/01/17 09:50:30;;;;;;;5.25;2.45;;;3.60;64.30;;;;;;5073455;28;20028;-74
2023/01/17 09:53:03;;;;;;;4.05;2.08;;;3.90;62.80;;;;;;5073245;28;20025;-73
2023/01/17 09:55:38;;;;;;;6.00;2.70;;;4.30;61.90;;;;;;5055390;28;20044;-74
2023/01/17 09:58:11;;;;;;;6.57;2.47;;;4.70;59.70;;;;;;5055303;28;20036;-73
2023/01/17 10:00:59;;;;;;;3.45;2.05;;;4.90;58.40;;;;;;5055704;28;20051;-75
2023/01/17 10:03:25;;;;;;;2.75;1.75;;;5.00;57.00;;;;;;5054541;28;20028;-75
2023/01/17 10:06:03;;;;;;;3.03;1.77;;;4.90;57.40;;;;;;5054967;28;20084;-75
2023/01/17 10:08:49;;;;;;;2.80;1.40;;;4.80;57.60;;;;;;5055373;28;20020;-75
2023/01/17 10:11:46;;;;;;;4.95;2.10;;;4.80;57.90;;;;;;5055287;28;20025;-76
2023/01/17 10:14:47;;;;;;;5.57;2.10;;;5.00;57.80;;;;;;5055279;28;20174;-77
2023/01/17 10:17:29;;;;;;;3.90;2.30;;;4.90;56.90;;;;;;5050713;28;20161;-74
2023/01/17 10:20:20;;;;;;;4.07;1.98;;;4.80;57.70;;;;;;5055152;28;20063;-75
2023/01/17 10:23:11;;;;;;;3.67;1.90;;;4.50;59.30;;;;;;5055312;28;20029;-76
2023/01/17 10:25:47;;;;;;;3.55;2.45;;;4.40;59.80;;;;;;5055684;28;20082;-80
2023/01/17 10:28:40;;;;;;;5.32;2.08;;;4.40;59.90;;;;;;5055426;28;20021;-84
2023/01/17 10:31:20;;;;;;;8.30;2.30;;;4.40;59.90;;;;;;5053385;28;20039;-82
2023/01/17 10:33:59;;;;;;;8.10;3.33;;;4.50;59.80;;;;;;5057579;28;20021;-77
2023/01/17 10:36:28;;;;;;;5.25;2.58;;;4.50;59.60;;;;;;5053628;28;20030;-88
2023/01/17 10:39:01;;;;;;;5.65;2.28;;;4.50;59.30;;;;;;4988545;28;20038;-80
2023/01/17 10:41:54;;;;;;;3.28;1.90;;;4.50;59.00;;;;;;4956216;28;20027;-85
2023/01/17 10:44:43;;;;;;;3.15;1.80;;;4.40;59.40;;;;;;4956403;28;20391;-87
2023/01/17 10:47:20;;;;;;;3.08;1.67;;;4.50;59.30;;;;;;4956766;28;20061;-88
2023/01/17 10:49:48;;;;;;;5.70;1.73;;;4.50;58.80;;;;;;4956002;28;20019;-84
2023/01/17 10:52:46;;;;;;;5.03;1.67;;;4.40;58.80;;;;;;4955115;28;20041;-79
2023/01/17 10:55:27;;;;;;;3.28;1.55;;;4.00;59.40;;;;;;4955085;28;20058;-80
2023/01/17 10:57:53;;;;;;;1.90;1.40;;;3.90;60.40;;;;;;4954782;28;20039;-78
2023/01/17 11:00:33;;;;;;;2.65;1.38;;;3.70;61.00;;;;;;4954533;28;20027;-80
2023/01/17 11:02:59;;;;;;;4.10;1.98;;;3.50;62.00;;;;;;4954680;28;20417;-84
2023/01/17 11:05:28;;;;;;;7.57;2.95;;;3.30;62.90;;;;;;4954990;28;20348;-82
2023/01/17 11:08:00;;;;;;;6.55;2.90;;;3.20;64.00;;;;;;4954960;28;20076;-82
2023/01/17 11:10:56;;;;;;;7.82;3.15;;;3.20;64.50;;;;;;4954702;28;20533;-83
2023/01/17 11:13:33;;;;;;;5.10;2.67;;;3.10;65.20;;;;;;4953160;28;20413;-78
2023/01/17 11:16:09;;;;;;;2.90;2.40;;;3.10;65.40;;;;;;4954470;28;20035;-80
2023/01/17 11:18:38;;;;;;;5.05;2.17;;;3.20;65.20;;;;;;4956233;28;20037;-82
2023/01/17 11:21:19;;;;;;;4.13;2.20;;;3.20;65.50;;;;;;4957586;28;20026;-78
2023/01/17 11:23:47;;;;;;;2.35;1.70;;;3.30;65.40;;;;;;4959151;28;20094;-88
2023/01/17 11:26:31;;;;;;;4.70;2.05;;;3.30;65.00;;;;;;4975276;28;20073;-87
2023/01/17 11:29:26;;;;;;;3.80;2.03;;;3.30;65.10;;;;;;4991586;28;20026;-87
2023/01/17 11:31:54;;;;;;;4.43;2.13;;;3.20;65.50;;;;;;4945094;28;20042;-89
2023/01/17 11:34:30;;;;;;;3.78;1.67;;;3.20;65.80;;;;;;4959745;28;20034;-86
2023/01/17 11:37:16;;;;;;;4.40;2.13;;;3.30;65.50;;;;;;4958897;28;20031;-84
2023/01/17 11:39:42;;;;;;;;;;;3.40;65.40;;;;;;4959162;28;20059;-85
2023/01/17 11:42:37;;;;;;;3.55;1.80;;;3.40;64.50;;;;;;4957746;28;19906;-82
2023/01/17 11:45:29;;;;;;;4.05;2.35;;;3.60;64.80;;;;;;4975124;28;20475;-86
2023/01/17 11:48:12;;;;;;;3.75;2.30;;;3.70;64.20;;;;;;4957728;28;20106;-86
2023/01/17 11:50:45;;;;;;;5.25;2.08;;;3.70;63.60;;;;;;4956728;28;20125;-77
2023/01/17 11:53:27;;;;;;;5.22;2.35;;;3.80;63.90;;;;;;4957479;28;20045;-81
2023/01/17 11:56:28;;;;;;;4.05;2.28;;;4.00;63.80;;;;;;4957461;28;20046;-82
2023/01/17 11:59:11;;;;;;;3.75;1.85;;;4.10;62.90;;;;;;4976439;28;20440;-84
2023/01/17 12:01:54;;;;;;;6.15;2.28;;;4.30;62.40;;;;;;4957270;28;20076;-87
2023/01/17 12:04:35;;;;;;;4.53;1.90;;;4.40;62.40;;;;;;4974997;28;20084;-86
2023/01/17 12:07:27;;;;;;;3.97;2.28;;;4.50;61.40;;;;;;4958222;28;20038;-86
2023/01/17 12:09:56;;;;;;;6.03;2.58;;;4.70;60.50;;;;;;4958011;28;20031;-87
2023/01/17 12:15:51;;;;;;;5.57;2.70;;;5.00;59.30;;;;;;4975232;28;20038;-85
2023/01/17 12:18:44;;;;;;;5.57;2.45;;;5.00;59.20;;;;;;4957476;28;20034;-85
2023/01/17 12:21:33;;;;;;;9.50;3.90;;;5.00;59.00;;;;;;4957959;28;20041;-80
2023/01/17 12:24:08;;;;;;;6.55;3.10;;;5.10;58.80;;;;;;4958315;28;20433;-83
2023/01/17 12:26:35;;;;;;;6.00;2.10;;;5.10;58.40;;;;;;4957613;28;20054;-85
2023/01/17 12:29:41;;;;;;;4.32;1.80;;;5.20;58.20;;;;;;4956750;28;20043;-83
2023/01/17 12:32:38;;;;;;;4.43;1.35;;;5.30;57.60;;;;;;4957552;28;20176;-85
2023/01/17 12:35:12;;;;;;;4.97;1.50;;;5.30;55.60;;;;;;4958476;28;20536;-85
2023/01/17 12:37:45;;;;;;;3.35;1.08;;;5.30;54.70;;;;;;4958232;28;20547;-85
2023/01/17 12:40:24;;;;;;;3.33;1.42;;;5.30;54.60;;;;;;4956926;28;20035;-82
2023/01/17 12:43:06;;;;;;;2.78;0.95;;;5.30;54.20;;;;;;4957224;28;20035;-83
2023/01/17 12:45:37;;;;;;;3.75;1.60;;;5.20;53.60;;;;;;4974511;28;20038;-82
2023/01/17 12:48:09;;;;;;;3.15;1.30;;;4.80;54.50;;;;;;4958056;28;20046;-84
2023/01/17 12:50:48;;;;;;;3.42;1.45;;;4.50;55.30;;;;;;4957538;28;20023;-87
2023/01/17 12:53:42;;;;;;;3.88;1.67;;;4.40;56.00;;;;;;4957680;28;20022;-81
2023/01/17 12:56:34;;;;;;;3.25;1.63;;;4.30;56.70;;;;;;4957372;28;20061;-87
2023/01/17 12:59:05;;;;;;;2.90;1.20;;;4.20;56.80;;;;;;4958641;28;20073;-86
2023/01/17 13:01:41;;;;;;;3.67;1.50;;;4.30;56.40;;;;;;4957262;28;20033;-84
2023/01/17 13:04:37;;;;;;;3.33;1.70;;;4.30;56.20;;;;;;4958636;28;20027;-84
2023/01/17 13:07:21;;;;;;;4.75;1.48;;;4.30;56.20;;;;;;4957365;28;20029;-87
2023/01/17 13:10:26;;;;;;;2.90;1.70;;;4.20;55.00;;;;;;4957331;28;20030;-86
2023/01/17 13:12:56;;;;;;;1.88;0.98;;;4.00;56.10;;;;;;4957183;28;20034;-85
2023/01/17 13:15:31;;;;;;;2.85;1.17;;;4.00;55.10;;;;;;4958134;28;20471;-85
2023/01/17 13:18:21;;;;;;;5.45;1.40;;;3.90;55.70;;;;;;4957900;28;20039;-84
2023/01/17 13:20:55;;;;;;;5.35;1.15;;;3.80;56.00;;;;;;4967523;28;20031;-77
2023/01/17 13:23:35;;;;;;;2.50;1.25;;;3.80;56.60;;;;;;4976872;28;20031;-77
2023/01/17 13:26:05;;;;;;;2.40;0.93;;;3.80;56.60;;;;;;4974642;28;20044;-82
2023/01/17 13:28:37;;;;;;;2.30;1.05;;;3.80;56.10;;;;;;4969683;28;20026;-84
2023/01/17 13:31:39;;;;;;;4.80;1.20;;;3.70;55.50;;;;;;4965381;28;20037;-82
2023/01/17 13:34:23;;;;;;;3.53;1.30;;;3.70;55.60;;;;;;4963721;28;20038;-82
2023/01/17 13:37:03;;;;;;;4.47;1.30;;;3.50;55.80;;;;;;4962216;28;20027;-83
2023/01/17 13:39:44;;;;;;;3.83;1.05;;;3.40;56.00;;;;;;4977751;28;20050;-82
2023/01/17 13:42:58;;;;;;;4.35;1.30;;;3.40;56.10;;;;;;4960425;28;20053;-86
2023/01/17 13:45:33;;;;;;;4.57;1.30;;;3.40;56.70;;;;;;4963981;28;20503;-86
2023/01/17 13:48:17;;;;;;;2.20;1.17;;;3.30;56.50;;;;;;4958997;28;20043;-87
2023/01/17 13:50:51;;;;;;;2.65;0.95;;;3.20;57.00;;;;;;4957175;28;20487;-84
2023/01/17 13:53:38;;;;;;;4.85;1.38;;;3.30;57.70;;;;;;4955841;28;20035;-80
2023/01/17 13:56:30;;;;;;;2.65;1.20;;;3.20;57.20;;;;;;4955359;28;20051;-87
2023/01/17 13:59:01;;;;;;;4.32;1.25;;;3.30;57.40;;;;;;4954915;28;20034;-84
2023/01/17 14:01:37;;;;;;;3.15;1.20;;;3.30;57.50;;;;;;4955019;28;20031;-86
2023/01/17 14:04:10;;;;;;;1.58;0.88;;;3.30;58.20;;;;;;4955094;28;20027;-85
2023/01/17 14:06:54;;;;;;;1.65;0.95;;;3.30;57.70;;;;;;4955582;28;20031;-86
2023/01/17 14:09:44;;;;;;;3.70;1.95;;;3.30;58.00;;;;;;4971242;28;20498;-82
2023/01/17 14:12:09;;;;;;;3.03;1.38;;;3.30;58.30;;;;;;4955980;28;20023;-88
2023/01/17 14:14:38;;;;;;;2.40;1.13;;;3.40;57.80;;;;;;4955540;28;20125;-81
2023/01/17 14:17:24;;;;;;;4.90;1.40;;;3.40;57.50;;;;;;4955080;28;20104;-83
2023/01/17 14:19:51;;;;;;;1.60;1.10;;;3.30;57.60;;;;;;4955200;28;20118;-86
2023/01/17 14:22:19;;;;;;;3.80;1.52;;;3.30;57.90;;;;;;4954994;28;20391;-81
2023/01/17 14:24:59;;;;;;;2.40;1.00;;;3.30;58.30;;;;;;4955139;28;20432;-83
2023/01/17 14:27:27;;;;;;;2.85;1.10;;;3.30;58.50;;;;;;4955476;28;20391;-87
2023/01/17 14:29:58;;;;;;;3.20;0.80;;;3.30;58.10;;;;;;4955151;28;20476;-83
2023/01/17 14:32:30;;;;;;;1.98;0.68;;;3.30;58.00;;;;;;4955083;28;20061;-84
2023/01/17 14:34:56;;;;;;;2.17;0.63;;;3.40;57.70;;;;;;4954860;28;20034;-80
2023/01/17 14:37:42;;;;;;;1.20;0.70;;;3.40;57.50;;;;;;4954969;28;20035;-78
2023/01/17 14:40:26;;;;;;;3.42;0.88;;;3.40;57.50;;;;;;4954984;28;20122;-84
2023/01/17 14:43:12;;;;;;;2.15;1.20;;;3.40;57.40;;;;;;4954847;28;20035;-83
2023/01/17 14:45:38;;;;;;;1.23;0.88;;;3.50;57.40;;;;;;4954219;28;20054;-85
2023/01/17 14:48:06;;;;;;;2.65;1.00;;;3.50;57.50;;;;;;4955121;28;20031;-86
2023/01/17 14:50:40;;;;;;;2.53;1.00;;;3.50;57.50;;;;;;4955005;28;20030;-86